sensor_id;sensor_type;location;lat;lon;timestamp;P1;durP1;ratioP1;P2;durP2;ratioP2
33826;SDS011;20128;45.582;5.298;2022-12-18T00:01:29;81.90;;;32.25;;
33826;SDS011;20128;45.582;5.298;2022-12-18T00:04:00;77.55;;;31.70;;
33826;SDS011;20128;45.582;5.298;2022-12-18T00:06:31;86.30;;;31.17;;
33826;SDS011;20128;45.582;5.298;2022-12-18T00:08:58;73.53;;;29.35;;
33826;SDS011;20128;45.582;5.298;2022-12-18T00:11:26;79.07;;;29.45;;
33826;SDS011;20128;45.582;5.298;2022-12-18T00:13:53;77.90;;;28.83;;
33826;SDS011;20128;45.582;5.298;2022-12-18T00:16:21;80.22;;;28.48;;
33826;SDS011;20128;45.582;5.298;2022-12-18T00:18:49;88.85;;;30.75;;
33826;SDS011;20128;45.582;5.298;2022-12-18T00:21:16;84.35;;;30.92;;
33826;SDS011;20128;45.582;5.298;2022-12-18T00:23:43;78.22;;;31.25;;
33826;SDS011;20128;45.582;5.298;2022-12-18T00:26:12;97.13;;;35.42;;
33826;SDS011;20128;45.582;5.298;2022-12-18T00:28:43;76.70;;;28.70;;
33826;SDS011;20128;45.582;5.298;2022-12-18T00:31:10;68.28;;;26.75;;
33826;SDS011;20128;45.582;5.298;2022-12-18T00:33:40;79.65;;;28.42;;
33826;SDS011;20128;45.582;5.298;2022-12-18T00:36:08;80.80;;;29.98;;
33826;SDS011;20128;45.582;5.298;2022-12-18T00:38:37;80.00;;;29.10;;
33826;SDS011;20128;45.582;5.298;2022-12-18T00:41:03;79.88;;;30.73;;
33826;SDS011;20128;45.582;5.298;2022-12-18T00:43:30;86.38;;;30.45;;
33826;SDS011;20128;45.582;5.298;2022-12-18T00:45:55;75.47;;;28.13;;
33826;SDS011;20128;45.582;5.298;2022-12-18T00:48:21;77.30;;;29.05;;
33826;SDS011;20128;45.582;5.298;2022-12-18T00:50:48;81.93;;;30.75;;
33826;SDS011;20128;45.582;5.298;2022-12-18T00:53:14;77.43;;;29.77;;
33826;SDS011;20128;45.582;5.298;2022-12-18T00:55:41;79.38;;;28.02;;
33826;SDS011;20128;45.582;5.298;2022-12-18T00:58:07;69.72;;;28.70;;
33826;SDS011;20128;45.582;5.298;2022-12-18T01:00:34;72.47;;;27.63;;
33826;SDS011;20128;45.582;5.298;2022-12-18T01:03:00;72.32;;;26.75;;
33826;SDS011;20128;45.582;5.298;2022-12-18T01:05:26;67.40;;;26.27;;
33826;SDS011;20128;45.582;5.298;2022-12-18T01:07:52;72.32;;;27.83;;
33826;SDS011;20128;45.582;5.298;2022-12-18T01:10:18;82.50;;;28.58;;
33826;SDS011;20128;45.582;5.298;2022-12-18T01:12:44;68.15;;;26.55;;
33826;SDS011;20128;45.582;5.298;2022-12-18T01:15:10;66.80;;;25.25;;
33826;SDS011;20128;45.582;5.298;2022-12-18T01:17:37;64.07;;;24.65;;
33826;SDS011;20128;45.582;5.298;2022-12-18T01:20:03;89.28;;;32.78;;
33826;SDS011;20128;45.582;5.298;2022-12-18T01:22:30;92.80;;;35.45;;
33826;SDS011;20128;45.582;5.298;2022-12-18T01:24:55;110.68;;;39.72;;
33826;SDS011;20128;45.582;5.298;2022-12-18T01:27:21;95.82;;;36.63;;
33826;SDS011;20128;45.582;5.298;2022-12-18T01:29:46;75.80;;;28.42;;
33826;SDS011;20128;45.582;5.298;2022-12-18T01:32:12;75.65;;;29.55;;
33826;SDS011;20128;45.582;5.298;2022-12-18T01:34:38;75.03;;;29.25;;
33826;SDS011;20128;45.582;5.298;2022-12-18T01:37:04;74.25;;;27.10;;
33826;SDS011;20128;45.582;5.298;2022-12-18T01:39:30;68.05;;;26.77;;
33826;SDS011;20128;45.582;5.298;2022-12-18T01:41:57;62.67;;;25.70;;
33826;SDS011;20128;45.582;5.298;2022-12-18T01:49:47;69.32;;;26.92;;
33826;SDS011;20128;45.582;5.298;2022-12-18T01:52:13;77.53;;;30.00;;
33826;SDS011;20128;45.582;5.298;2022-12-18T01:54:40;78.68;;;28.80;;
33826;SDS011;20128;45.582;5.298;2022-12-18T01:57:06;74.93;;;27.95;;
33826;SDS011;20128;45.582;5.298;2022-12-18T01:59:32;69.57;;;27.55;;
33826;SDS011;20128;45.582;5.298;2022-12-18T02:02:00;63.90;;;25.98;;
33826;SDS011;20128;45.582;5.298;2022-12-18T02:04:27;65.15;;;26.20;;
33826;SDS011;20128;45.582;5.298;2022-12-18T02:09:29;83.00;;;29.77;;
33826;SDS011;20128;45.582;5.298;2022-12-18T02:12:07;89.18;;;32.15;;
33826;SDS011;20128;45.582;5.298;2022-12-18T02:17:38;105.93;;;38.13;;
33826;SDS011;20128;45.582;5.298;2022-12-18T02:20:27;148.20;;;49.30;;
33826;SDS011;20128;45.582;5.298;2022-12-18T02:28:44;104.25;;;39.00;;
33826;SDS011;20128;45.582;5.298;2022-12-18T02:31:21;74.72;;;28.10;;
33826;SDS011;20128;45.582;5.298;2022-12-18T02:33:50;69.15;;;27.73;;
33826;SDS011;20128;45.582;5.298;2022-12-18T02:36:18;61.08;;;25.02;;
33826;SDS011;20128;45.582;5.298;2022-12-18T02:38:46;61.30;;;24.83;;
33826;SDS011;20128;45.582;5.298;2022-12-18T02:41:14;61.75;;;25.83;;
33826;SDS011;20128;45.582;5.298;2022-12-18T02:43:45;68.38;;;29.73;;
33826;SDS011;20128;45.582;5.298;2022-12-18T02:48:57;47.83;;;21.23;;
33826;SDS011;20128;45.582;5.298;2022-12-18T02:51:48;58.75;;;25.95;;
33826;SDS011;20128;45.582;5.298;2022-12-18T02:54:24;60.80;;;27.23;;
33826;SDS011;20128;45.582;5.298;2022-12-18T02:56:57;50.72;;;21.95;;
33826;SDS011;20128;45.582;5.298;2022-12-18T02:59:38;49.75;;;20.90;;
33826;SDS011;20128;45.582;5.298;2022-12-18T03:02:17;72.03;;;30.55;;
33826;SDS011;20128;45.582;5.298;2022-12-18T03:07:46;48.80;;;20.02;;
33826;SDS011;20128;45.582;5.298;2022-12-18T03:10:14;66.75;;;30.00;;
33826;SDS011;20128;45.582;5.298;2022-12-18T03:12:53;59.00;;;24.45;;
33826;SDS011;20128;45.582;5.298;2022-12-18T03:15:27;56.10;;;23.50;;
33826;SDS011;20128;45.582;5.298;2022-12-18T03:18:02;50.35;;;20.58;;
33826;SDS011;20128;45.582;5.298;2022-12-18T03:20:35;49.17;;;20.80;;
33826;SDS011;20128;45.582;5.298;2022-12-18T03:23:07;51.10;;;21.73;;
33826;SDS011;20128;45.582;5.298;2022-12-18T03:25:39;54.47;;;21.92;;
33826;SDS011;20128;45.582;5.298;2022-12-18T03:28:08;34.95;;;14.80;;
33826;SDS011;20128;45.582;5.298;2022-12-18T03:30:37;40.10;;;17.25;;
33826;SDS011;20128;45.582;5.298;2022-12-18T03:33:11;49.40;;;19.83;;
33826;SDS011;20128;45.582;5.298;2022-12-18T03:35:42;52.97;;;20.75;;
33826;SDS011;20128;45.582;5.298;2022-12-18T03:38:09;48.88;;;18.95;;
33826;SDS011;20128;45.582;5.298;2022-12-18T03:43:11;42.50;;;18.67;;
33826;SDS011;20128;45.582;5.298;2022-12-18T03:45:51;47.53;;;18.83;;
33826;SDS011;20128;45.582;5.298;2022-12-18T03:48:27;51.92;;;19.20;;
33826;SDS011;20128;45.582;5.298;2022-12-18T03:50:58;53.85;;;21.15;;
33826;SDS011;20128;45.582;5.298;2022-12-18T03:53:41;37.53;;;14.88;;
33826;SDS011;20128;45.582;5.298;2022-12-18T03:56:22;47.75;;;20.52;;
33826;SDS011;20128;45.582;5.298;2022-12-18T03:58:52;46.13;;;20.52;;
33826;SDS011;20128;45.582;5.298;2022-12-18T04:01:20;38.42;;;17.83;;
33826;SDS011;20128;45.582;5.298;2022-12-18T04:03:50;46.15;;;20.15;;
33826;SDS011;20128;45.582;5.298;2022-12-18T04:06:17;47.42;;;19.23;;
33826;SDS011;20128;45.582;5.298;2022-12-18T04:08:43;46.75;;;20.95;;
33826;SDS011;20128;45.582;5.298;2022-12-18T04:11:10;34.90;;;16.50;;
33826;SDS011;20128;45.582;5.298;2022-12-18T04:13:36;42.45;;;19.15;;
33826;SDS011;20128;45.582;5.298;2022-12-18T04:16:02;44.75;;;18.73;;
33826;SDS011;20128;45.582;5.298;2022-12-18T04:18:28;37.85;;;15.32;;
33826;SDS011;20128;45.582;5.298;2022-12-18T04:20:54;42.00;;;20.65;;
33826;SDS011;20128;45.582;5.298;2022-12-18T04:23:20;40.75;;;18.70;;
33826;SDS011;20128;45.582;5.298;2022-12-18T04:25:46;43.25;;;18.52;;
33826;SDS011;20128;45.582;5.298;2022-12-18T04:28:12;44.75;;;18.38;;
33826;SDS011;20128;45.582;5.298;2022-12-18T04:30:38;44.95;;;19.15;;
33826;SDS011;20128;45.582;5.298;2022-12-18T04:33:07;38.25;;;16.80;;
33826;SDS011;20128;45.582;5.298;2022-12-18T04:35:34;48.85;;;19.55;;
33826;SDS011;20128;45.582;5.298;2022-12-18T04:38:00;41.25;;;17.75;;
33826;SDS011;20128;45.582;5.298;2022-12-18T04:40:26;44.50;;;19.63;;
33826;SDS011;20128;45.582;5.298;2022-12-18T04:42:51;38.70;;;15.82;;
33826;SDS011;20128;45.582;5.298;2022-12-18T04:45:17;44.60;;;18.55;;
33826;SDS011;20128;45.582;5.298;2022-12-18T04:47:43;41.15;;;16.85;;
33826;SDS011;20128;45.582;5.298;2022-12-18T04:50:08;44.60;;;19.75;;
33826;SDS011;20128;45.582;5.298;2022-12-18T04:52:34;42.90;;;17.80;;
33826;SDS011;20128;45.582;5.298;2022-12-18T04:55:00;45.72;;;19.65;;
33826;SDS011;20128;45.582;5.298;2022-12-18T04:57:26;46.58;;;19.33;;
33826;SDS011;20128;45.582;5.298;2022-12-18T04:59:51;43.70;;;19.27;;
33826;SDS011;20128;45.582;5.298;2022-12-18T05:02:17;39.63;;;17.80;;
33826;SDS011;20128;45.582;5.298;2022-12-18T05:04:43;40.20;;;18.35;;
33826;SDS011;20128;45.582;5.298;2022-12-18T05:07:08;36.30;;;16.55;;
33826;SDS011;20128;45.582;5.298;2022-12-18T05:09:34;37.25;;;17.23;;
33826;SDS011;20128;45.582;5.298;2022-12-18T05:11:59;42.42;;;18.27;;
33826;SDS011;20128;45.582;5.298;2022-12-18T05:14:25;40.90;;;18.92;;
33826;SDS011;20128;45.582;5.298;2022-12-18T05:16:52;44.33;;;19.25;;
33826;SDS011;20128;45.582;5.298;2022-12-18T05:19:18;39.85;;;17.73;;
33826;SDS011;20128;45.582;5.298;2022-12-18T05:21:43;42.88;;;17.73;;
33826;SDS011;20128;45.582;5.298;2022-12-18T05:24:09;40.38;;;16.67;;
33826;SDS011;20128;45.582;5.298;2022-12-18T05:26:35;36.58;;;15.70;;
33826;SDS011;20128;45.582;5.298;2022-12-18T05:29:01;32.88;;;13.20;;
33826;SDS011;20128;45.582;5.298;2022-12-18T05:31:26;41.33;;;18.20;;
33826;SDS011;20128;45.582;5.298;2022-12-18T05:33:52;40.30;;;17.40;;
33826;SDS011;20128;45.582;5.298;2022-12-18T05:36:19;37.35;;;15.35;;
33826;SDS011;20128;45.582;5.298;2022-12-18T05:38:44;35.45;;;16.92;;
33826;SDS011;20128;45.582;5.298;2022-12-18T05:41:10;42.55;;;16.92;;
33826;SDS011;20128;45.582;5.298;2022-12-18T05:43:36;37.47;;;14.27;;
33826;SDS011;20128;45.582;5.298;2022-12-18T05:46:04;32.88;;;16.58;;
33826;SDS011;20128;45.582;5.298;2022-12-18T05:48:31;35.20;;;14.95;;
33826;SDS011;20128;45.582;5.298;2022-12-18T05:51:02;39.08;;;16.30;;
33826;SDS011;20128;45.582;5.298;2022-12-18T05:53:33;40.22;;;18.27;;
33826;SDS011;20128;45.582;5.298;2022-12-18T05:56:00;44.05;;;19.13;;
33826;SDS011;20128;45.582;5.298;2022-12-18T05:58:26;40.13;;;16.63;;
33826;SDS011;20128;45.582;5.298;2022-12-18T06:00:52;44.75;;;18.88;;
33826;SDS011;20128;45.582;5.298;2022-12-18T06:03:18;40.78;;;17.85;;
33826;SDS011;20128;45.582;5.298;2022-12-18T06:05:44;41.10;;;17.02;;
33826;SDS011;20128;45.582;5.298;2022-12-18T06:08:10;38.53;;;15.95;;
33826;SDS011;20128;45.582;5.298;2022-12-18T06:10:37;39.50;;;17.40;;
33826;SDS011;20128;45.582;5.298;2022-12-18T06:13:03;39.42;;;17.35;;
33826;SDS011;20128;45.582;5.298;2022-12-18T06:15:30;45.00;;;17.27;;
33826;SDS011;20128;45.582;5.298;2022-12-18T06:17:55;40.78;;;17.67;;
33826;SDS011;20128;45.582;5.298;2022-12-18T06:20:21;41.05;;;17.00;;
33826;SDS011;20128;45.582;5.298;2022-12-18T06:22:47;37.65;;;16.63;;
33826;SDS011;20128;45.582;5.298;2022-12-18T06:25:13;36.58;;;17.08;;
33826;SDS011;20128;45.582;5.298;2022-12-18T06:27:39;44.47;;;17.65;;
33826;SDS011;20128;45.582;5.298;2022-12-18T06:30:05;42.67;;;17.55;;
33826;SDS011;20128;45.582;5.298;2022-12-18T06:32:31;40.47;;;17.13;;
33826;SDS011;20128;45.582;5.298;2022-12-18T06:34:57;35.42;;;16.20;;
33826;SDS011;20128;45.582;5.298;2022-12-18T06:37:23;42.70;;;18.58;;
33826;SDS011;20128;45.582;5.298;2022-12-18T06:39:54;33.97;;;16.45;;
33826;SDS011;20128;45.582;5.298;2022-12-18T06:42:21;31.10;;;13.23;;
33826;SDS011;20128;45.582;5.298;2022-12-18T06:44:47;33.63;;;14.48;;
33826;SDS011;20128;45.582;5.298;2022-12-18T06:47:13;38.60;;;16.77;;
33826;SDS011;20128;45.582;5.298;2022-12-18T06:49:38;35.30;;;15.68;;
33826;SDS011;20128;45.582;5.298;2022-12-18T06:52:04;35.78;;;16.27;;
33826;SDS011;20128;45.582;5.298;2022-12-18T06:54:30;28.23;;;11.95;;
33826;SDS011;20128;45.582;5.298;2022-12-18T06:56:55;34.97;;;16.10;;
33826;SDS011;20128;45.582;5.298;2022-12-18T06:59:21;34.22;;;14.63;;
33826;SDS011;20128;45.582;5.298;2022-12-18T07:01:46;33.22;;;15.50;;
33826;SDS011;20128;45.582;5.298;2022-12-18T07:04:12;34.28;;;14.52;;
33826;SDS011;20128;45.582;5.298;2022-12-18T07:06:38;33.72;;;15.90;;
33826;SDS011;20128;45.582;5.298;2022-12-18T07:09:03;31.00;;;13.65;;
33826;SDS011;20128;45.582;5.298;2022-12-18T07:11:29;37.42;;;16.80;;
33826;SDS011;20128;45.582;5.298;2022-12-18T07:13:57;35.63;;;15.68;;
33826;SDS011;20128;45.582;5.298;2022-12-18T07:16:23;31.35;;;13.70;;
33826;SDS011;20128;45.582;5.298;2022-12-18T07:18:48;35.75;;;14.57;;
33826;SDS011;20128;45.582;5.298;2022-12-18T07:21:15;32.17;;;15.43;;
33826;SDS011;20128;45.582;5.298;2022-12-18T07:23:42;34.45;;;15.60;;
33826;SDS011;20128;45.582;5.298;2022-12-18T07:26:09;33.38;;;15.63;;
33826;SDS011;20128;45.582;5.298;2022-12-18T07:28:37;35.42;;;14.85;;
33826;SDS011;20128;45.582;5.298;2022-12-18T07:31:04;34.65;;;16.80;;
33826;SDS011;20128;45.582;5.298;2022-12-18T07:33:37;30.52;;;13.98;;
33826;SDS011;20128;45.582;5.298;2022-12-18T07:36:04;29.88;;;12.68;;
33826;SDS011;20128;45.582;5.298;2022-12-18T07:38:31;36.90;;;15.52;;
33826;SDS011;20128;45.582;5.298;2022-12-18T07:41:01;32.92;;;15.40;;
33826;SDS011;20128;45.582;5.298;2022-12-18T07:43:27;38.97;;;15.32;;
33826;SDS011;20128;45.582;5.298;2022-12-18T07:45:53;38.08;;;16.38;;
33826;SDS011;20128;45.582;5.298;2022-12-18T07:48:19;33.55;;;15.15;;
33826;SDS011;20128;45.582;5.298;2022-12-18T07:50:45;37.53;;;16.85;;
33826;SDS011;20128;45.582;5.298;2022-12-18T07:53:10;32.88;;;13.80;;
33826;SDS011;20128;45.582;5.298;2022-12-18T07:55:36;37.92;;;15.73;;
33826;SDS011;20128;45.582;5.298;2022-12-18T07:58:05;35.88;;;15.60;;
33826;SDS011;20128;45.582;5.298;2022-12-18T08:00:30;30.52;;;11.70;;
33826;SDS011;20128;45.582;5.298;2022-12-18T08:02:56;30.38;;;14.23;;
33826;SDS011;20128;45.582;5.298;2022-12-18T08:05:22;27.80;;;12.00;;
33826;SDS011;20128;45.582;5.298;2022-12-18T08:07:48;31.25;;;14.63;;
33826;SDS011;20128;45.582;5.298;2022-12-18T08:10:14;30.85;;;14.65;;
33826;SDS011;20128;45.582;5.298;2022-12-18T08:12:40;33.90;;;14.02;;
33826;SDS011;20128;45.582;5.298;2022-12-18T08:15:06;34.38;;;16.17;;
33826;SDS011;20128;45.582;5.298;2022-12-18T08:17:32;30.80;;;13.52;;
33826;SDS011;20128;45.582;5.298;2022-12-18T08:19:58;34.80;;;14.70;;
33826;SDS011;20128;45.582;5.298;2022-12-18T08:22:23;33.97;;;12.73;;
33826;SDS011;20128;45.582;5.298;2022-12-18T08:24:49;26.98;;;12.27;;
33826;SDS011;20128;45.582;5.298;2022-12-18T08:27:15;29.52;;;13.57;;
33826;SDS011;20128;45.582;5.298;2022-12-18T08:29:41;26.88;;;10.82;;
33826;SDS011;20128;45.582;5.298;2022-12-18T08:32:06;33.53;;;13.98;;
33826;SDS011;20128;45.582;5.298;2022-12-18T08:34:32;28.05;;;13.30;;
33826;SDS011;20128;45.582;5.298;2022-12-18T08:36:58;29.83;;;12.63;;
33826;SDS011;20128;45.582;5.298;2022-12-18T08:39:23;28.02;;;11.85;;
33826;SDS011;20128;45.582;5.298;2022-12-18T08:41:49;28.42;;;12.80;;
33826;SDS011;20128;45.582;5.298;2022-12-18T08:44:33;27.08;;;12.80;;
33826;SDS011;20128;45.582;5.298;2022-12-18T08:47:05;22.48;;;10.45;;
33826;SDS011;20128;45.582;5.298;2022-12-18T08:49:32;26.92;;;12.73;;
33826;SDS011;20128;45.582;5.298;2022-12-18T08:51:58;29.98;;;13.30;;
33826;SDS011;20128;45.582;5.298;2022-12-18T08:54:23;27.52;;;12.13;;
33826;SDS011;20128;45.582;5.298;2022-12-18T08:56:49;28.35;;;11.73;;
33826;SDS011;20128;45.582;5.298;2022-12-18T08:59:16;26.75;;;11.98;;
33826;SDS011;20128;45.582;5.298;2022-12-18T09:01:42;18.77;;;9.50;;
33826;SDS011;20128;45.582;5.298;2022-12-18T09:04:11;24.90;;;11.73;;
33826;SDS011;20128;45.582;5.298;2022-12-18T09:06:37;27.45;;;12.98;;
33826;SDS011;20128;45.582;5.298;2022-12-18T09:09:04;24.90;;;11.13;;
33826;SDS011;20128;45.582;5.298;2022-12-18T09:11:30;19.95;;;8.27;;
33826;SDS011;20128;45.582;5.298;2022-12-18T09:13:56;26.02;;;12.80;;
33826;SDS011;20128;45.582;5.298;2022-12-18T09:16:24;26.90;;;12.70;;
33826;SDS011;20128;45.582;5.298;2022-12-18T09:18:50;24.55;;;9.43;;
33826;SDS011;20128;45.582;5.298;2022-12-18T09:21:17;26.45;;;11.40;;
33826;SDS011;20128;45.582;5.298;2022-12-18T09:23:52;23.67;;;10.43;;
33826;SDS011;20128;45.582;5.298;2022-12-18T09:26:19;18.30;;;9.48;;
33826;SDS011;20128;45.582;5.298;2022-12-18T09:28:45;24.33;;;11.63;;
33826;SDS011;20128;45.582;5.298;2022-12-18T09:31:11;20.42;;;10.93;;
33826;SDS011;20128;45.582;5.298;2022-12-18T09:33:39;21.90;;;10.50;;
33826;SDS011;20128;45.582;5.298;2022-12-18T09:36:07;26.38;;;12.65;;
33826;SDS011;20128;45.582;5.298;2022-12-18T09:38:39;23.73;;;11.10;;
33826;SDS011;20128;45.582;5.298;2022-12-18T09:43:41;22.98;;;12.10;;
33826;SDS011;20128;45.582;5.298;2022-12-18T09:46:23;19.33;;;8.20;;
33826;SDS011;20128;45.582;5.298;2022-12-18T09:48:58;21.40;;;10.25;;
33826;SDS011;20128;45.582;5.298;2022-12-18T09:51:28;22.13;;;10.30;;
33826;SDS011;20128;45.582;5.298;2022-12-18T09:54:00;22.98;;;9.95;;
33826;SDS011;20128;45.582;5.298;2022-12-18T09:56:31;19.15;;;9.43;;
33826;SDS011;20128;45.582;5.298;2022-12-18T09:59:03;19.55;;;9.57;;
33826;SDS011;20128;45.582;5.298;2022-12-18T10:01:29;19.13;;;9.65;;
33826;SDS011;20128;45.582;5.298;2022-12-18T10:03:56;22.75;;;10.88;;
33826;SDS011;20128;45.582;5.298;2022-12-18T10:20:13;24.58;;;11.90;;
33826;SDS011;20128;45.582;5.298;2022-12-18T10:28:29;22.30;;;11.52;;
33826;SDS011;20128;45.582;5.298;2022-12-18T10:30:56;27.40;;;11.40;;
33826;SDS011;20128;45.582;5.298;2022-12-18T10:33:23;25.48;;;12.27;;
33826;SDS011;20128;45.582;5.298;2022-12-18T10:35:50;20.50;;;10.07;;
33826;SDS011;20128;45.582;5.298;2022-12-18T10:40:52;25.35;;;12.00;;
33826;SDS011;20128;45.582;5.298;2022-12-18T10:43:36;26.63;;;11.63;;
33826;SDS011;20128;45.582;5.298;2022-12-18T10:54:15;23.73;;;12.32;;
33826;SDS011;20128;45.582;5.298;2022-12-18T10:56:48;25.92;;;12.30;;
33826;SDS011;20128;45.582;5.298;2022-12-18T10:59:15;25.30;;;12.18;;
33826;SDS011;20128;45.582;5.298;2022-12-18T11:01:46;23.08;;;12.93;;
33826;SDS011;20128;45.582;5.298;2022-12-18T11:04:15;26.10;;;11.98;;
33826;SDS011;20128;45.582;5.298;2022-12-18T11:06:52;20.67;;;10.73;;
33826;SDS011;20128;45.582;5.298;2022-12-18T11:09:26;25.02;;;10.68;;
33826;SDS011;20128;45.582;5.298;2022-12-18T11:11:54;22.48;;;9.98;;
33826;SDS011;20128;45.582;5.298;2022-12-18T11:14:23;24.80;;;11.90;;
33826;SDS011;20128;45.582;5.298;2022-12-18T11:16:49;26.05;;;11.35;;
33826;SDS011;20128;45.582;5.298;2022-12-18T11:21:49;25.45;;;10.98;;
33826;SDS011;20128;45.582;5.298;2022-12-18T11:27:01;21.13;;;10.70;;
33826;SDS011;20128;45.582;5.298;2022-12-18T11:29:33;16.20;;;9.10;;
33826;SDS011;20128;45.582;5.298;2022-12-18T11:34:50;16.95;;;9.50;;
33826;SDS011;20128;45.582;5.298;2022-12-18T11:37:26;15.35;;;8.77;;
33826;SDS011;20128;45.582;5.298;2022-12-18T11:39:58;17.10;;;8.38;;
33826;SDS011;20128;45.582;5.298;2022-12-18T11:42:32;17.52;;;8.05;;
33826;SDS011;20128;45.582;5.298;2022-12-18T11:47:45;20.08;;;8.32;;
33826;SDS011;20128;45.582;5.298;2022-12-18T11:50:16;14.80;;;7.75;;
33826;SDS011;20128;45.582;5.298;2022-12-18T11:53:03;12.35;;;6.57;;
33826;SDS011;20128;45.582;5.298;2022-12-18T11:55:31;10.90;;;7.18;;
33826;SDS011;20128;45.582;5.298;2022-12-18T11:58:30;17.17;;;7.22;;
33826;SDS011;20128;45.582;5.298;2022-12-18T12:16:50;14.20;;;5.57;;
33826;SDS011;20128;45.582;5.298;2022-12-18T12:19:36;17.75;;;6.55;;
33826;SDS011;20128;45.582;5.298;2022-12-18T12:22:09;11.57;;;5.72;;
33826;SDS011;20128;45.582;5.298;2022-12-18T12:25:09;11.25;;;5.78;;
33826;SDS011;20128;45.582;5.298;2022-12-18T12:30:44;17.60;;;6.78;;
33826;SDS011;20128;45.582;5.298;2022-12-18T12:33:41;17.70;;;8.95;;
33826;SDS011;20128;45.582;5.298;2022-12-18T12:39:30;12.43;;;6.13;;
33826;SDS011;20128;45.582;5.298;2022-12-18T12:42:02;9.68;;;5.03;;
33826;SDS011;20128;45.582;5.298;2022-12-18T12:44:53;13.10;;;6.72;;
33826;SDS011;20128;45.582;5.298;2022-12-18T12:47:26;15.63;;;6.32;;
33826;SDS011;20128;45.582;5.298;2022-12-18T12:50:02;14.48;;;5.93;;
33826;SDS011;20128;45.582;5.298;2022-12-18T12:52:35;12.43;;;6.10;;
33826;SDS011;20128;45.582;5.298;2022-12-18T12:55:13;21.48;;;9.13;;
33826;SDS011;20128;45.582;5.298;2022-12-18T12:58:25;12.68;;;6.82;;
33826;SDS011;20128;45.582;5.298;2022-12-18T13:18:28;11.32;;;6.72;;
33826;SDS011;20128;45.582;5.298;2022-12-18T13:23:25;16.83;;;6.60;;
33826;SDS011;20128;45.582;5.298;2022-12-18T13:26:28;18.38;;;9.10;;
33826;SDS011;20128;45.582;5.298;2022-12-18T13:36:50;14.85;;;6.70;;
33826;SDS011;20128;45.582;5.298;2022-12-18T13:41:48;18.83;;;7.05;;
33826;SDS011;20128;45.582;5.298;2022-12-18T13:44:27;16.13;;;6.85;;
33826;SDS011;20128;45.582;5.298;2022-12-18T13:47:02;12.38;;;6.03;;
33826;SDS011;20128;45.582;5.298;2022-12-18T13:49:42;16.27;;;7.15;;
33826;SDS011;20128;45.582;5.298;2022-12-18T13:52:19;12.57;;;6.60;;
33826;SDS011;20128;45.582;5.298;2022-12-18T13:54:51;12.52;;;5.70;;
33826;SDS011;20128;45.582;5.298;2022-12-18T13:57:29;14.75;;;6.90;;
33826;SDS011;20128;45.582;5.298;2022-12-18T14:02:59;21.63;;;7.28;;
33826;SDS011;20128;45.582;5.298;2022-12-18T14:05:29;17.08;;;8.05;;
33826;SDS011;20128;45.582;5.298;2022-12-18T14:08:14;14.88;;;8.02;;
33826;SDS011;20128;45.582;5.298;2022-12-18T14:10:47;16.45;;;7.97;;
33826;SDS011;20128;45.582;5.298;2022-12-18T14:13:31;14.65;;;7.18;;
33826;SDS011;20128;45.582;5.298;2022-12-18T14:16:03;18.25;;;8.27;;
33826;SDS011;20128;45.582;5.298;2022-12-18T14:18:52;21.48;;;9.05;;
33826;SDS011;20128;45.582;5.298;2022-12-18T14:21:24;17.67;;;9.18;;
33826;SDS011;20128;45.582;5.298;2022-12-18T14:24:13;19.55;;;9.27;;
33826;SDS011;20128;45.582;5.298;2022-12-18T14:26:44;16.20;;;7.97;;
33826;SDS011;20128;45.582;5.298;2022-12-18T14:29:44;16.45;;;8.73;;
33826;SDS011;20128;45.582;5.298;2022-12-18T14:32:10;24.20;;;9.90;;
33826;SDS011;20128;45.582;5.298;2022-12-18T14:34:42;20.52;;;9.43;;
33826;SDS011;20128;45.582;5.298;2022-12-18T14:37:09;19.20;;;8.55;;
33826;SDS011;20128;45.582;5.298;2022-12-18T14:39:37;18.58;;;8.20;;
33826;SDS011;20128;45.582;5.298;2022-12-18T14:42:02;17.70;;;8.38;;
33826;SDS011;20128;45.582;5.298;2022-12-18T14:44:28;16.30;;;8.80;;
33826;SDS011;20128;45.582;5.298;2022-12-18T14:46:54;19.92;;;8.48;;
33826;SDS011;20128;45.582;5.298;2022-12-18T14:51:50;19.15;;;9.23;;
33826;SDS011;20128;45.582;5.298;2022-12-18T14:54:21;16.15;;;8.85;;
33826;SDS011;20128;45.582;5.298;2022-12-18T14:57:32;19.38;;;9.70;;
33826;SDS011;20128;45.582;5.298;2022-12-18T14:59:42;18.15;;;8.88;;
33826;SDS011;20128;45.582;5.298;2022-12-18T15:04:34;19.92;;;10.50;;
33826;SDS011;20128;45.582;5.298;2022-12-18T15:07:14;17.73;;;10.02;;
33826;SDS011;20128;45.582;5.298;2022-12-18T15:10:31;19.65;;;10.13;;
33826;SDS011;20128;45.582;5.298;2022-12-18T15:12:39;21.05;;;9.70;;
33826;SDS011;20128;45.582;5.298;2022-12-18T15:15:05;19.92;;;9.68;;
33826;SDS011;20128;45.582;5.298;2022-12-18T15:20:58;18.83;;;9.60;;
33826;SDS011;20128;45.582;5.298;2022-12-18T15:23:29;18.60;;;9.77;;
33826;SDS011;20128;45.582;5.298;2022-12-18T15:26:16;17.48;;;9.68;;
33826;SDS011;20128;45.582;5.298;2022-12-18T15:33:41;56.10;;;28.63;;
33826;SDS011;20128;45.582;5.298;2022-12-18T15:36:25;126.53;;;67.80;;
33826;SDS011;20128;45.582;5.298;2022-12-18T15:38:52;51.58;;;27.35;;
33826;SDS011;20128;45.582;5.298;2022-12-18T15:41:20;23.02;;;11.57;;
33826;SDS011;20128;45.582;5.298;2022-12-18T15:43:47;21.50;;;11.50;;
33826;SDS011;20128;45.582;5.298;2022-12-18T15:46:16;18.73;;;10.45;;
33826;SDS011;20128;45.582;5.298;2022-12-18T15:48:53;17.92;;;8.98;;
33826;SDS011;20128;45.582;5.298;2022-12-18T15:51:28;18.42;;;9.43;;
33826;SDS011;20128;45.582;5.298;2022-12-18T15:53:58;17.20;;;8.63;;
33826;SDS011;20128;45.582;5.298;2022-12-18T15:56:26;18.77;;;9.57;;
33826;SDS011;20128;45.582;5.298;2022-12-18T15:59:14;28.17;;;11.30;;
33826;SDS011;20128;45.582;5.298;2022-12-18T16:01:42;23.92;;;12.43;;
33826;SDS011;20128;45.582;5.298;2022-12-18T16:04:13;25.42;;;12.38;;
33826;SDS011;20128;45.582;5.298;2022-12-18T16:06:41;23.13;;;12.48;;
33826;SDS011;20128;45.582;5.298;2022-12-18T16:09:07;24.90;;;12.43;;
33826;SDS011;20128;45.582;5.298;2022-12-18T16:11:34;24.63;;;12.27;;
33826;SDS011;20128;45.582;5.298;2022-12-18T16:16:54;24.27;;;11.40;;
33826;SDS011;20128;45.582;5.298;2022-12-18T16:19:24;23.73;;;11.55;;
33826;SDS011;20128;45.582;5.298;2022-12-18T16:21:51;24.98;;;10.20;;
33826;SDS011;20128;45.582;5.298;2022-12-18T16:24:20;20.02;;;9.50;;
33826;SDS011;20128;45.582;5.298;2022-12-18T16:26:51;20.05;;;10.57;;
33826;SDS011;20128;45.582;5.298;2022-12-18T16:29:18;20.40;;;10.73;;
33826;SDS011;20128;45.582;5.298;2022-12-18T16:31:44;17.70;;;10.15;;
33826;SDS011;20128;45.582;5.298;2022-12-18T16:34:10;25.17;;;11.35;;
33826;SDS011;20128;45.582;5.298;2022-12-18T16:36:36;35.75;;;16.60;;
33826;SDS011;20128;45.582;5.298;2022-12-18T16:39:02;62.22;;;32.95;;
33826;SDS011;20128;45.582;5.298;2022-12-18T16:41:27;73.07;;;35.38;;
33826;SDS011;20128;45.582;5.298;2022-12-18T16:43:56;26.80;;;14.55;;
33826;SDS011;20128;45.582;5.298;2022-12-18T16:46:22;23.08;;;11.00;;
33826;SDS011;20128;45.582;5.298;2022-12-18T16:48:47;28.10;;;11.77;;
33826;SDS011;20128;45.582;5.298;2022-12-18T16:51:13;23.23;;;10.55;;
33826;SDS011;20128;45.582;5.298;2022-12-18T16:53:39;24.00;;;11.25;;
33826;SDS011;20128;45.582;5.298;2022-12-18T16:56:05;21.38;;;11.95;;
33826;SDS011;20128;45.582;5.298;2022-12-18T16:58:30;23.35;;;10.95;;